createdAt,value
2022-10-04T00:00:50.280Z,11.18
2022-10-04T00:05:56.447Z,11.20
2022-10-04T00:11:12.561Z,11.26
2022-10-04T00:16:22.893Z,11.30
2022-10-04T00:21:24.269Z,11.29
2022-10-04T00:26:25.544Z,11.30
2022-10-04T00:31:28.961Z,11.36
2022-10-04T00:36:44.249Z,11.29
2022-10-04T00:41:48.270Z,11.32
2022-10-04T00:46:51.633Z,11.30
2022-10-04T00:52:01.566Z,11.33
2022-10-04T00:57:07.500Z,11.21
2022-10-04T01:02:21.621Z,11.17
2022-10-04T01:07:29.064Z,11.00
2022-10-04T01:12:44.190Z,11.19
2022-10-04T01:18:29.607Z,11.25
2022-10-04T01:23:36.038Z,11.23
2022-10-04T01:28:38.442Z,11.13
2022-10-04T01:33:41.039Z,11.07
2022-10-04T01:38:42.464Z,11.14
2022-10-04T01:43:45.725Z,11.05
2022-10-04T01:48:47.311Z,10.98
2022-10-04T01:54:02.050Z,10.98
2022-10-04T01:59:07.291Z,10.81
2022-10-04T02:04:31.595Z,10.92
2022-10-04T02:09:35.018Z,10.86
2022-10-04T02:14:42.864Z,10.88
2022-10-04T02:19:45.068Z,10.90
2022-10-04T02:24:49.637Z,10.92
2022-10-04T02:29:51.129Z,10.93
2022-10-04T02:34:54.786Z,10.93
2022-10-04T02:40:03.874Z,10.91
2022-10-04T02:45:16.072Z,10.83
2022-10-04T02:50:44.181Z,10.91
2022-10-04T02:55:46.360Z,10.89
2022-10-04T03:00:56.828Z,10.87
2022-10-04T03:06:01.188Z,10.84
2022-10-04T03:11:04.644Z,10.76
2022-10-04T03:16:06.511Z,10.85
2022-10-04T03:21:11.860Z,10.85
2022-10-04T03:26:32.080Z,10.82
2022-10-04T03:31:35.051Z,10.80
2022-10-04T03:36:36.536Z,10.74
2022-10-04T03:41:41.987Z,10.72
2022-10-04T03:46:45.344Z,10.61
2022-10-04T03:51:49.529Z,10.59
2022-10-04T03:56:52.913Z,10.36
2022-10-04T04:02:06.599Z,10.45
2022-10-04T04:07:23.776Z,10.49
2022-10-04T04:12:43.775Z,10.45
2022-10-04T04:17:52.226Z,10.46
2022-10-04T04:23:32.718Z,10.49
2022-10-04T04:28:42.227Z,10.38
2022-10-04T04:33:49.293Z,10.39
2022-10-04T04:39:09.366Z,10.30
2022-10-04T04:44:19.313Z,10.34
2022-10-04T04:49:20.751Z,10.29
2022-10-04T04:54:24.850Z,10.33
2022-10-04T04:59:27.736Z,10.23
2022-10-04T05:04:29.654Z,10.32
2022-10-04T05:09:36.434Z,10.30
2022-10-04T05:14:41.650Z,10.23
2022-10-04T05:19:43.014Z,10.30
2022-10-04T05:24:47.644Z,10.28
2022-10-04T05:30:06.607Z,10.19
2022-10-04T05:35:19.481Z,10.17
2022-10-04T05:40:32.253Z,10.06
2022-10-04T05:45:33.691Z,10.12
2022-10-04T05:50:41.782Z,10.09
2022-10-04T05:56:18.619Z,10.05
2022-10-04T06:01:41.363Z,10.07
2022-10-04T06:06:53.931Z,10.13
2022-10-04T06:12:14.280Z,9.75
2022-10-04T06:17:27.762Z,10.11
2022-10-04T06:22:30.417Z,10.16
2022-10-04T06:27:41.642Z,10.18
2022-10-04T06:33:05.741Z,10.27
2022-10-04T06:38:22.178Z,10.31
2022-10-04T06:43:41.330Z,10.37
2022-10-04T06:49:20.120Z,10.47
2022-10-04T06:54:33.401Z,10.50
2022-10-04T07:00:02.788Z,10.57
2022-10-04T07:05:30.117Z,10.77
2022-10-04T07:10:38.851Z,10.85
2022-10-04T07:16:01.956Z,10.95
2022-10-04T07:21:13.589Z,11.07
2022-10-04T07:26:19.659Z,11.04
2022-10-04T07:31:35.254Z,11.12
2022-10-04T07:36:50.553Z,11.19
2022-10-04T07:42:12.398Z,11.31
2022-10-04T07:47:27.798Z,11.43
2022-10-04T07:52:41.518Z,11.49
2022-10-04T07:58:14.549Z,11.52
2022-10-04T08:03:34.844Z,11.67
2022-10-04T08:08:59.119Z,11.74
2022-10-04T08:14:38.199Z,11.78
2022-10-04T08:19:51.555Z,11.85
2022-10-04T08:25:17.340Z,11.92
2022-10-04T08:30:18.896Z,11.95
2022-10-04T08:35:27.864Z,12.17
2022-10-04T08:40:54.085Z,12.28
2022-10-04T08:46:13.734Z,12.33
2022-10-04T08:51:33.296Z,12.31
2022-10-04T08:56:58.295Z,12.45
2022-10-04T09:02:18.481Z,12.49
2022-10-04T09:07:54.750Z,12.66
2022-10-04T09:13:22.376Z,12.83
2022-10-04T09:18:42.495Z,12.98
2022-10-04T09:24:09.103Z,13.16
2022-10-04T09:29:37.384Z,13.20
2022-10-04T09:34:57.795Z,13.44
2022-10-04T09:40:26.780Z,13.62
2022-10-04T09:45:48.967Z,13.47
2022-10-04T09:51:11.409Z,13.62
2022-10-04T09:56:30.677Z,13.84
2022-10-04T10:02:03.247Z,13.95
2022-10-04T10:07:15.468Z,13.89
2022-10-04T10:13:03.488Z,13.93
2022-10-04T10:18:27.305Z,14.18
2022-10-04T10:23:46.067Z,14.16
2022-10-04T10:29:18.042Z,14.40
2022-10-04T10:34:56.830Z,14.37
2022-10-04T10:40:35.478Z,14.52
2022-10-04T10:46:01.179Z,14.53
2022-10-04T10:51:40.396Z,14.56
2022-10-04T10:56:55.273Z,14.68
2022-10-04T11:02:10.131Z,14.59
2022-10-04T11:07:39.950Z,14.66
2022-10-04T11:13:07.062Z,14.59
2022-10-04T11:18:34.935Z,14.69
2022-10-04T11:23:57.503Z,15.10
2022-10-04T11:29:31.432Z,14.95
2022-10-04T11:35:12.714Z,14.99
2022-10-04T11:40:25.210Z,14.97
2022-10-04T11:45:48.470Z,15.12
2022-10-04T11:51:03.059Z,15.28
2022-10-04T11:56:34.700Z,15.33
2022-10-04T12:01:59.914Z,15.29
2022-10-04T12:07:42.437Z,15.71
2022-10-04T12:12:47.252Z,15.75
2022-10-04T12:18:17.761Z,15.75
2022-10-04T12:23:40.898Z,15.79
2022-10-04T12:28:51.325Z,15.86
2022-10-04T12:34:04.857Z,16.02
2022-10-04T12:39:06.127Z,15.95
2022-10-04T12:44:26.957Z,16.15
2022-10-04T12:49:38.586Z,16.00
2022-10-04T12:54:45.251Z,16.21
2022-10-04T13:00:12.728Z,16.36
2022-10-04T13:05:22.363Z,16.05
2022-10-04T13:10:57.553Z,16.41
2022-10-04T13:21:34.977Z,16.22
2022-10-04T13:26:59.029Z,16.58
2022-10-04T13:32:14.172Z,16.49
2022-10-04T13:37:45.063Z,16.40
2022-10-04T13:43:00.782Z,16.61
2022-10-04T13:48:40.410Z,16.72
2022-10-04T13:54:10.736Z,16.77
2022-10-04T13:59:49.387Z,16.72
2022-10-04T14:05:28.201Z,16.76
2022-10-04T14:11:06.435Z,16.83
2022-10-04T14:16:26.249Z,16.92
2022-10-04T14:22:02.219Z,16.80
2022-10-04T14:27:22.394Z,16.82
2022-10-04T14:32:42.136Z,17.01
2022-10-04T14:38:05.573Z,17.25
2022-10-04T14:43:17.236Z,17.21
2022-10-04T14:48:50.953Z,17.05
2022-10-04T14:54:06.295Z,17.03
2022-10-04T14:59:45.220Z,16.99
2022-10-04T15:04:51.276Z,17.09
2022-10-04T15:10:12.368Z,17.20
2022-10-04T15:15:41.564Z,17.17
2022-10-04T15:20:58.764Z,17.08
2022-10-04T15:26:18.368Z,17.12
2022-10-04T15:31:34.822Z,17.20
2022-10-04T15:37:01.763Z,17.15
2022-10-04T15:42:22.596Z,17.16
2022-10-04T15:47:49.374Z,17.10
2022-10-04T15:53:06.697Z,17.03
2022-10-04T15:58:30.954Z,17.06
2022-10-04T16:03:54.488Z,17.01
2022-10-04T16:09:10.887Z,16.96
2022-10-04T16:14:33.238Z,16.94
2022-10-04T16:20:06.392Z,16.83
2022-10-04T16:25:26.095Z,16.88
2022-10-04T16:30:39.957Z,16.79
2022-10-04T16:36:01.907Z,16.68
2022-10-04T16:41:14.384Z,16.68
2022-10-04T16:46:15.751Z,16.55
2022-10-04T16:51:17.060Z,16.50
2022-10-04T16:56:22.998Z,16.43
2022-10-04T17:01:55.465Z,16.33
2022-10-04T17:07:13.066Z,16.21
2022-10-04T17:12:32.540Z,16.12
2022-10-04T17:17:49.232Z,16.09
2022-10-04T17:23:28.850Z,15.94
2022-10-04T17:28:55.280Z,15.82
2022-10-04T17:34:36.103Z,15.64
2022-10-04T17:39:46.585Z,15.56
2022-10-04T17:45:03.094Z,15.56
2022-10-04T17:50:37.418Z,15.46
2022-10-04T17:55:59.756Z,15.35
2022-10-04T18:01:14.322Z,15.25
2022-10-04T18:06:41.208Z,15.10
2022-10-04T18:11:49.800Z,14.92
2022-10-04T18:17:00.756Z,14.91
2022-10-04T18:22:19.528Z,14.80
2022-10-04T18:27:25.209Z,14.66
2022-10-04T18:32:26.844Z,14.66
2022-10-04T18:37:33.731Z,14.57
2022-10-04T18:42:36.999Z,14.50
2022-10-04T18:47:40.236Z,14.38
2022-10-04T18:52:57.992Z,14.43
2022-10-04T18:59:12.260Z,14.34
2022-10-04T19:04:21.222Z,14.26
2022-10-04T19:09:30.728Z,14.27
2022-10-04T19:14:54.533Z,14.33
2022-10-04T19:20:10.005Z,14.28
2022-10-04T19:25:36.377Z,14.32
2022-10-04T19:31:05.286Z,14.28
2022-10-04T19:36:11.793Z,14.25
2022-10-04T19:41:38.869Z,14.22
2022-10-04T19:46:58.846Z,14.14
2022-10-04T19:52:22.443Z,14.08
2022-10-04T19:57:38.088Z,13.89
2022-10-04T20:02:45.972Z,13.88
2022-10-04T20:21:07.811Z,13.78
2022-10-04T20:26:11.827Z,13.73
2022-10-04T20:31:25.396Z,13.70
2022-10-04T20:36:29.764Z,13.63
2022-10-04T20:41:53.681Z,13.57
2022-10-04T20:46:55.377Z,13.51
2022-10-04T20:51:56.981Z,13.39
2022-10-04T20:56:58.371Z,13.43
2022-10-04T21:02:00.910Z,13.37
2022-10-04T21:07:07.249Z,13.43
2022-10-04T21:12:33.841Z,13.35
2022-10-04T21:17:37.139Z,13.29
2022-10-04T21:22:39.381Z,13.12
2022-10-04T21:27:43.590Z,13.16
2022-10-04T21:32:45.607Z,13.08
2022-10-04T21:37:46.967Z,13.03
2022-10-04T21:42:48.194Z,13.02
2022-10-04T21:47:49.513Z,12.91
2022-10-04T21:52:50.822Z,12.91
2022-10-04T21:57:52.164Z,12.89
2022-10-04T22:02:53.456Z,12.81
2022-10-04T22:07:54.825Z,12.73
2022-10-04T22:12:57.040Z,12.69
2022-10-04T22:17:58.478Z,12.66
2022-10-04T22:23:00.927Z,12.65
2022-10-04T22:28:13.254Z,12.69
2022-10-04T22:33:41.860Z,12.53
2022-10-04T22:38:48.947Z,12.44
2022-10-04T22:43:50.336Z,12.64
2022-10-04T22:48:51.620Z,12.62
2022-10-04T22:53:52.937Z,12.65
2022-10-04T22:58:54.408Z,12.64
2022-10-04T23:03:57.719Z,12.64
2022-10-04T23:09:00.429Z,12.61
2022-10-04T23:14:01.750Z,12.54
2022-10-04T23:19:21.408Z,12.65
2022-10-04T23:24:23.234Z,12.57
2022-10-04T23:29:30.082Z,12.68
2022-10-04T23:34:36.617Z,12.52
2022-10-04T23:39:38.051Z,12.45
2022-10-04T23:44:39.282Z,12.53
2022-10-04T23:49:41.131Z,12.43
2022-10-04T23:54:42.573Z,12.45
2022-10-04T23:59:43.855Z,12.53
